US Aviators Van Nuys Flight School Los Angeles Pilot school at Van Nuys Simulator Flight Training Profesional Pilot Instruction Learn to Fly

U.S. Aviators

Learn to fly here! (818) 779-2105

Weather at Van Nuys Airport

Observed:Sat Jul 23, 20:51 PDT
Age:59 min ago
Wind:E at 3 mph
Visibility:10 miles
Conditions:Smoke
Clouds:Clear skies
Temperature:79°F (26°C)
Dewpoint:63°F (17°C)
Humidity:58%
Barometer:1010 hPa (29.84 in Hg)

METAR

KVNY 240351Z 10005KT 10SM FU CLR 26/17 A2984 RMK AO2 SLP095 T02560167